Gulbeniz A — TCZK8 — position and weather

sailwx.info

Track history (hours):
 
Tides and Currents Weather Stations Pressure Air Temp Water Temp Dewpoint Dewpoint Depression Visibility Wind Speed Wind Dir Waves Ship Positions

Gulbeniz A

Last reported at 2017-Aug-19 14:01 UTC. Time now 2017-Aug-19 14:44 UTC.
Position N 43°01' E 005°19'.

Length 210 m; draft 10.8 m.

Type: Ship (hazmat cat A). MMSI: 271042493.

Date/timePositionNaut miles runAvg speedWind from/ knotsBaromVisibWave heightAir tempDewpointWater temp
2017-Aug-19 14:01N 43°01' E 005°19'613.0
2017-Aug-19 13:30N 43°04' E 005°12'612.9
2017-Aug-19 13:01N 43°08' E 005°04'612.5
2017-Aug-19 12:31N 43°14' E 005°00'713.0
2017-Aug-19 12:00N 43°20' E 004°58'510.9
2017-Aug-19 11:30N 43°24' E 004°53'3 4.7
2017-Aug-19 10:58N 43°25' E 004°50'0 0.0
2017-Aug-19 10:28N 43°25' E 004°50'0 0.0
2017-Aug-19 09:58N 43°25' E 004°50'0 0.0
2017-Aug-19 09:28N 43°25' E 004°50'0 0.0
2017-Aug-19 08:58N 43°25' E 004°50'0 0.0
2017-Aug-19 08:28N 43°25' E 004°50'0 0.0
2017-Aug-19 07:58N 43°25' E 004°50'0 0.0
2017-Aug-19 07:28N 43°25' E 004°50'0 0.0
2017-Aug-19 06:58N 43°25' E 004°50'0 0.0
2017-Aug-19 06:28N 43°25' E 004°50'0 0.0
2017-Aug-19 05:58N 43°25' E 004°50'0 0.0
2017-Aug-19 05:28N 43°25' E 004°50'0 0.0
2017-Aug-19 04:58N 43°25' E 004°50'0 0.0
2017-Aug-19 04:28N 43°25' E 004°50'0 0.0
2017-Aug-19 03:58N 43°25' E 004°50'0 0.0
2017-Aug-19 03:28N 43°25' E 004°50'0 0.0
2017-Aug-19 02:58N 43°25' E 004°50'0 0.0
2017-Aug-19 02:28N 43°25' E 004°50'0 0.0
2017-Aug-19 01:58N 43°25' E 004°50'0 0.0
2017-Aug-19 01:28N 43°25' E 004°50'0 0.6
2017-Aug-19 01:00N 43°25' E 004°50'3 5.9
2017-Aug-19 00:30N 43°24' E 004°54'510.1
2017-Aug-19 00:00N 43°20' E 004°59'4 7.1
2017-Aug-18 23:30N 43°17' E 005°00'4 8.9
2017-Aug-18 23:01N 43°13' E 005°02'611.6
2017-Aug-18 22:31N 43°07' E 004°58'612.3
2017-Aug-18 22:00N 43°03' E 004°53'612.2
2017-Aug-18 21:30N 42°58' E 004°48'612.0
2017-Aug-18 21:00N 42°53' E 004°43'611.9
2017-Aug-18 20:30N 42°49' E 004°37'612.1
2017-Aug-18 20:01N 42°44' E 004°32'612.3
2017-Aug-18 19:30N 42°39' E 004°27'612.3
2017-Aug-18 19:00N 42°35' E 004°21'612.3
2017-Aug-18 18:30N 42°30' E 004°16'612.1
2017-Aug-18 18:00N 42°25' E 004°11'612.1
2017-Aug-18 17:31N 42°21' E 004°06'612.5
2017-Aug-18 17:00N 42°16' E 004°00'612.1
2017-Aug-18 16:30N 42°11' E 003°55'611.9
2017-Aug-18 16:00N 42°07' E 003°49'612.2
2017-Aug-18 15:31N 42°03' E 003°43'612.3
2017-Aug-18 15:01N 41°59' E 003°36'612.6
2017-Aug-18 14:31N 41°55' E 003°30'1312.8
2017-Aug-18 13:30N 41°48' E 003°16'714.0
2017-Aug-18 12:59N 41°43' E 003°08'714.2
2017-Aug-18 12:30N 41°39' E 003°01'713.9
2017-Aug-18 12:01N 41°35' E 002°54'713.6
2017-Aug-18 11:31N 41°30' E 002°47'713.4
2017-Aug-18 11:01N 41°26' E 002°40'712.9
2017-Aug-18 10:30N 41°23' E 002°32'612.9
2017-Aug-18 10:00N 41°20' E 002°25'612.6
2017-Aug-18 09:30N 41°18' E 002°17'5 9.9
2017-Aug-18 09:01N 41°18' E 002°11'4 6.7
2017-Aug-18 08:29N 41°21' E 002°10'0 0.0
2017-Aug-18 07:11N 41°21' E 002°10'0 0.0
2017-Aug-18 06:59N 41°21' E 002°10'0 0.0
2017-Aug-18 06:23N 41°21' E 002°10'0 0.0
2017-Aug-18 05:17N 41°21' E 002°10'0 0.0
2017-Aug-18 04:56N 41°21' E 002°10'0 0.0
2017-Aug-18 04:17N 41°21' E 002°10'0 0.0
2017-Aug-18 03:50N 41°21' E 002°10'0 0.0
2017-Aug-18 03:05N 41°21' E 002°10'0 0.0
2017-Aug-18 02:59N 41°21' E 002°10'0 0.0
2017-Aug-18 02:29N 41°21' E 002°10'0 0.0
2017-Aug-18 00:35N 41°21' E 002°10'0 0.0
2017-Aug-18 00:17N 41°21' E 002°10'0 0.0
2017-Aug-17 23:41N 41°21' E 002°10'0 0.0
2017-Aug-17 21:53N 41°21' E 002°10'0 0.0
2017-Aug-17 16:29N 41°21' E 002°10'0 0.0
2017-Aug-17 15:59N 41°21' E 002°10'0 0.0
2017-Aug-17 15:17N 41°21' E 002°10'0 0.0
2017-Aug-17 14:59N 41°21' E 002°10'0 0.0
2017-Aug-17 11:00N 41°21' E 002°10'3 3.6
2017-Aug-17 10:13N 41°18' E 002°11'2 6.8
2017-Aug-17 09:58N 41°17' E 002°11'4 8.9
2017-Aug-17 09:28N 41°13' E 002°08'612.9
2017-Aug-17 08:59N 41°08' E 002°03'612.9
2017-Aug-17 08:30N 41°03' E 001°58'612.9
2017-Aug-17 08:00N 40°58' E 001°53'612.8
2017-Aug-17 07:30N 40°53' E 001°47'612.8
2017-Aug-17 07:00N 40°48' E 001°42'613.0
2017-Aug-17 06:30N 40°43' E 001°37'712.9
2017-Aug-17 06:00N 40°38' E 001°31'612.6
2017-Aug-17 05:30N 40°35' E 001°25'612.0
2017-Aug-17 05:00N 40°31' E 001°18'612.2
2017-Aug-17 04:30N 40°28' E 001°11'612.3
2017-Aug-17 04:00N 40°25' E 001°05'612.1
2017-Aug-17 03:30N 40°21' E 000°58'612.1
2017-Aug-17 03:00N 40°18' E 000°51'612.2
2017-Aug-17 02:29N 40°14' E 000°44'612.1
2017-Aug-17 02:00N 40°11' E 000°38'612.0
2017-Aug-17 01:30N 40°08' E 000°31'612.1
2017-Aug-17 01:00N 40°05' E 000°25'612.0
2017-Aug-17 00:29N 40°01' E 000°18'612.2
2017-Aug-17 00:00N 39°58' E 000°11'8 0.3
2017-Aug-15 21:33N 39°58' E 000°02'0 0.0
2017-Aug-15 21:08N 39°58' E 000°02'0 0.7
2017-Aug-15 20:52N 39°58' E 000°02'2 5.7
2017-Aug-15 20:29N 39°57' E 000°04'2 3.8
2017-Aug-15 19:58N 39°57' E 000°07'1 2.4
2017-Aug-15 19:30N 39°57' E 000°08'2 3.2
2017-Aug-15 19:01N 39°56' E 000°10'5 9.5
2017-Aug-15 18:31N 39°51' E 000°10'712.0
2017-Aug-15 17:53N 39°45' E 000°04'50 1.4
2017-Aug-14 04:36N 39°16' E 000°58'111.9
2017-Aug-14 04:28N 39°16' E 000°60'612.0
2017-Aug-14 04:00N 39°15' E 001°07'712.3
2017-Aug-14 03:27N 39°14' E 001°15'612.3
2017-Aug-14 03:00N 39°14' E 001°23'612.1
2017-Aug-14 02:30N 39°13' E 001°30'611.8
2017-Aug-14 02:00N 39°12' E 001°38'611.9
2017-Aug-14 01:30N 39°11' E 001°45'612.1
2017-Aug-14 01:00N 39°10' E 001°53'612.2
2017-Aug-14 00:30N 39°09' E 002°01'612.2
2017-Aug-14 00:00N 39°08' E 002°09'612.3
2017-Aug-13 23:30N 39°07' E 002°17'612.4
2017-Aug-13 23:00N 39°07' E 002°25'612.4
2017-Aug-13 22:31N 39°06' E 002°32'612.3
2017-Aug-13 22:00N 39°05' E 002°40'612.3
2017-Aug-13 21:30N 39°04' E 002°48'612.1
2017-Aug-13 21:00N 39°03' E 002°56'612.2
2017-Aug-13 20:30N 39°02' E 003°04'612.2
2017-Aug-13 20:00N 39°01' E 003°11'612.3
2017-Aug-13 19:30N 39°00' E 003°19'612.2
2017-Aug-13 19:00N 38°60' E 003°27'612.2
2017-Aug-13 18:30N 38°58' E 003°35'612.1
2017-Aug-13 18:00N 38°57' E 003°42'612.0
2017-Aug-13 17:28N 38°56' E 003°50'43111.6
2017-Aug-12 04:23N 37°19' E 012°44'911.7
2017-Aug-12 03:35N 37°14' E 012°54'2510.7
2017-Aug-12 01:17N 37°02' E 013°21'410.9
2017-Aug-12 00:54N 37°00' E 013°26'411.2
2017-Aug-12 00:30N 36°59' E 013°31'611.1
2017-Aug-12 00:00N 36°57' E 013°38'611.0
2017-Aug-11 23:30N 36°55' E 013°44'510.9
2017-Aug-11 23:00N 36°53' E 013°50'511.0
2017-Aug-11 22:30N 36°51' E 013°57'510.9
2017-Aug-11 22:00N 36°48' E 014°03'510.8
2017-Aug-11 21:30N 36°47' E 014°09'510.7
2017-Aug-11 21:00N 36°45' E 014°16'510.7
2017-Aug-11 20:30N 36°42' E 014°21'510.9
2017-Aug-11 20:00N 36°40' E 014°28'510.8
2017-Aug-11 19:30N 36°38' E 014°34'510.9
2017-Aug-11 19:00N 36°37' E 014°41'510.8
2017-Aug-11 18:30N 36°36' E 014°47'611.0
2017-Aug-11 18:00N 36°35' E 014°54'612.0
2017-Aug-11 17:30N 36°35' E 015°02'612.2
2017-Aug-11 17:00N 36°34' E 015°09'1012.7
2017-Aug-11 16:15N 36°34' E 015°21'312.4
2017-Aug-11 15:59N 36°34' E 015°25'612.6
2017-Aug-11 15:30N 36°33' E 015°33'612.9
2017-Aug-11 15:00N 36°33' E 015°40'712.9
2017-Aug-11 14:30N 36°32' E 015°49'1312.9
2017-Aug-11 13:30N 36°32' E 016°05'912.8
2017-Aug-11 12:50N 36°31' E 016°15'612.7
2017-Aug-11 12:20N 36°31' E 016°23'812.7
2017-Aug-11 11:44N 36°31' E 016°33'2612.5
2017-Aug-11 09:38N 36°30' E 017°05'212.4
2017-Aug-11 09:30N 36°30' E 017°07'712.6
2017-Aug-11 08:56N 36°30' E 017°16'512.5
2017-Aug-11 08:30N 36°30' E 017°23'612.5
2017-Aug-11 08:00N 36°29' E 017°31'612.6
2017-Aug-11 07:30N 36°29' E 017°38'612.6
2017-Aug-11 07:00N 36°29' E 017°46'612.6
2017-Aug-11 06:30N 36°29' E 017°54'612.7
2017-Aug-11 06:00N 36°29' E 018°02'612.8
2017-Aug-11 05:30N 36°29' E 018°10'712.3
2017-Aug-11 04:57N 36°28' E 018°18'612.6
2017-Aug-11 04:30N 36°27' E 018°25'612.7
2017-Aug-11 04:00N 36°27' E 018°33'713.1
2017-Aug-11 03:30N 36°27' E 018°41'713.4
2017-Aug-11 03:00N 36°27' E 018°49'3213.3
2017-Aug-11 00:38N 36°25' E 019°29'213.1
2017-Aug-11 00:29N 36°25' E 019°31'612.9
2017-Aug-11 00:00N 36°24' E 019°39'613.0
2017-Aug-10 23:30N 36°23' E 019°47'713.0
2017-Aug-10 23:00N 36°23' E 019°55'1113.1
2017-Aug-10 22:10N 36°23' E 020°09'213.1
2017-Aug-10 21:59N 36°23' E 020°11'17511.6
2017-Aug-10 06:50N 37°07' E 023°43'3413.5
2017-Aug-10 04:16N 37°35' E 024°08'  
Track history (hours):
 
Tides and Currents Weather Stations Pressure Air Temp Water Temp Dewpoint Dewpoint Depression Visibility Wind Speed Wind Dir Waves Ship Positions

Gulbeniz A

Last reported at 2017-Aug-19 14:01 UTC. Time now 2017-Aug-19 14:44 UTC.
Position N 43°01' E 005°19'.

Length 210 m; draft 10.8 m.

Type: Ship (hazmat cat A). MMSI: 271042493.

Date/timePositionNaut miles runAvg speedWind from/ knotsBaromVisibWave heightAir tempDewpointWater temp
2017-Aug-19 14:01N 43°01' E 005°19'613.0
2017-Aug-19 13:30N 43°04' E 005°12'612.9
2017-Aug-19 13:01N 43°08' E 005°04'612.5
2017-Aug-19 12:31N 43°14' E 005°00'713.0
2017-Aug-19 12:00N 43°20' E 004°58'510.9
2017-Aug-19 11:30N 43°24' E 004°53'3 4.7
2017-Aug-19 10:58N 43°25' E 004°50'0 0.0
2017-Aug-19 10:28N 43°25' E 004°50'0 0.0
2017-Aug-19 09:58N 43°25' E 004°50'0 0.0
2017-Aug-19 09:28N 43°25' E 004°50'0 0.0
2017-Aug-19 08:58N 43°25' E 004°50'0 0.0
2017-Aug-19 08:28N 43°25' E 004°50'0 0.0
2017-Aug-19 07:58N 43°25' E 004°50'0 0.0
2017-Aug-19 07:28N 43°25' E 004°50'0 0.0
2017-Aug-19 06:58N 43°25' E 004°50'0 0.0
2017-Aug-19 06:28N 43°25' E 004°50'0 0.0
2017-Aug-19 05:58N 43°25' E 004°50'0 0.0
2017-Aug-19 05:28N 43°25' E 004°50'0 0.0
2017-Aug-19 04:58N 43°25' E 004°50'0 0.0
2017-Aug-19 04:28N 43°25' E 004°50'0 0.0
2017-Aug-19 03:58N 43°25' E 004°50'0 0.0
2017-Aug-19 03:28N 43°25' E 004°50'0 0.0
2017-Aug-19 02:58N 43°25' E 004°50'0 0.0
2017-Aug-19 02:28N 43°25' E 004°50'0 0.0
2017-Aug-19 01:58N 43°25' E 004°50'0 0.0
2017-Aug-19 01:28N 43°25' E 004°50'0 0.6
2017-Aug-19 01:00N 43°25' E 004°50'3 5.9
2017-Aug-19 00:30N 43°24' E 004°54'510.1
2017-Aug-19 00:00N 43°20' E 004°59'4 7.1
2017-Aug-18 23:30N 43°17' E 005°00'4 8.9
2017-Aug-18 23:01N 43°13' E 005°02'611.6
2017-Aug-18 22:31N 43°07' E 004°58'612.3
2017-Aug-18 22:00N 43°03' E 004°53'612.2
2017-Aug-18 21:30N 42°58' E 004°48'612.0
2017-Aug-18 21:00N 42°53' E 004°43'611.9
2017-Aug-18 20:30N 42°49' E 004°37'612.1
2017-Aug-18 20:01N 42°44' E 004°32'612.3
2017-Aug-18 19:30N 42°39' E 004°27'612.3
2017-Aug-18 19:00N 42°35' E 004°21'612.3
2017-Aug-18 18:30N 42°30' E 004°16'612.1
2017-Aug-18 18:00N 42°25' E 004°11'612.1
2017-Aug-18 17:31N 42°21' E 004°06'612.5
2017-Aug-18 17:00N 42°16' E 004°00'612.1
2017-Aug-18 16:30N 42°11' E 003°55'611.9
2017-Aug-18 16:00N 42°07' E 003°49'612.2
2017-Aug-18 15:31N 42°03' E 003°43'612.3
2017-Aug-18 15:01N 41°59' E 003°36'612.6
2017-Aug-18 14:31N 41°55' E 003°30'1312.8
2017-Aug-18 13:30N 41°48' E 003°16'714.0
2017-Aug-18 12:59N 41°43' E 003°08'714.2
2017-Aug-18 12:30N 41°39' E 003°01'713.9
2017-Aug-18 12:01N 41°35' E 002°54'713.6
2017-Aug-18 11:31N 41°30' E 002°47'713.4
2017-Aug-18 11:01N 41°26' E 002°40'712.9
2017-Aug-18 10:30N 41°23' E 002°32'612.9
2017-Aug-18 10:00N 41°20' E 002°25'612.6
2017-Aug-18 09:30N 41°18' E 002°17'5 9.9
2017-Aug-18 09:01N 41°18' E 002°11'4 6.7
2017-Aug-18 08:29N 41°21' E 002°10'0 0.0
2017-Aug-18 07:11N 41°21' E 002°10'0 0.0
2017-Aug-18 06:59N 41°21' E 002°10'0 0.0
2017-Aug-18 06:23N 41°21' E 002°10'0 0.0
2017-Aug-18 05:17N 41°21' E 002°10'0 0.0
2017-Aug-18 04:56N 41°21' E 002°10'0 0.0
2017-Aug-18 04:17N 41°21' E 002°10'0 0.0
2017-Aug-18 03:50N 41°21' E 002°10'0 0.0
2017-Aug-18 03:05N 41°21' E 002°10'0 0.0
2017-Aug-18 02:59N 41°21' E 002°10'0 0.0
2017-Aug-18 02:29N 41°21' E 002°10'0 0.0
2017-Aug-18 00:35N 41°21' E 002°10'0 0.0
2017-Aug-18 00:17N 41°21' E 002°10'0 0.0
2017-Aug-17 23:41N 41°21' E 002°10'0 0.0
2017-Aug-17 21:53N 41°21' E 002°10'0 0.0
2017-Aug-17 16:29N 41°21' E 002°10'0 0.0
2017-Aug-17 15:59N 41°21' E 002°10'0 0.0
2017-Aug-17 15:17N 41°21' E 002°10'0 0.0
2017-Aug-17 14:59N 41°21' E 002°10'0 0.0
2017-Aug-17 11:00N 41°21' E 002°10'3 3.6
2017-Aug-17 10:13N 41°18' E 002°11'2 6.8
2017-Aug-17 09:58N 41°17' E 002°11'4 8.9
2017-Aug-17 09:28N 41°13' E 002°08'612.9
2017-Aug-17 08:59N 41°08' E 002°03'612.9
2017-Aug-17 08:30N 41°03' E 001°58'612.9
2017-Aug-17 08:00N 40°58' E 001°53'612.8
2017-Aug-17 07:30N 40°53' E 001°47'612.8
2017-Aug-17 07:00N 40°48' E 001°42'613.0
2017-Aug-17 06:30N 40°43' E 001°37'712.9
2017-Aug-17 06:00N 40°38' E 001°31'612.6
2017-Aug-17 05:30N 40°35' E 001°25'612.0
2017-Aug-17 05:00N 40°31' E 001°18'612.2
2017-Aug-17 04:30N 40°28' E 001°11'612.3
2017-Aug-17 04:00N 40°25' E 001°05'612.1
2017-Aug-17 03:30N 40°21' E 000°58'612.1
2017-Aug-17 03:00N 40°18' E 000°51'612.2
2017-Aug-17 02:29N 40°14' E 000°44'612.1
2017-Aug-17 02:00N 40°11' E 000°38'612.0
2017-Aug-17 01:30N 40°08' E 000°31'612.1
2017-Aug-17 01:00N 40°05' E 000°25'612.0
2017-Aug-17 00:29N 40°01' E 000°18'612.2
2017-Aug-17 00:00N 39°58' E 000°11'8 0.3
2017-Aug-15 21:33N 39°58' E 000°02'0 0.0
2017-Aug-15 21:08N 39°58' E 000°02'0 0.7
2017-Aug-15 20:52N 39°58' E 000°02'2 5.7
2017-Aug-15 20:29N 39°57' E 000°04'2 3.8
2017-Aug-15 19:58N 39°57' E 000°07'1 2.4
2017-Aug-15 19:30N 39°57' E 000°08'2 3.2
2017-Aug-15 19:01N 39°56' E 000°10'5 9.5
2017-Aug-15 18:31N 39°51' E 000°10'712.0
2017-Aug-15 17:53N 39°45' E 000°04'50 1.4
2017-Aug-14 04:36N 39°16' E 000°58'111.9
2017-Aug-14 04:28N 39°16' E 000°60'612.0
2017-Aug-14 04:00N 39°15' E 001°07'712.3
2017-Aug-14 03:27N 39°14' E 001°15'612.3
2017-Aug-14 03:00N 39°14' E 001°23'612.1
2017-Aug-14 02:30N 39°13' E 001°30'611.8
2017-Aug-14 02:00N 39°12' E 001°38'611.9
2017-Aug-14 01:30N 39°11' E 001°45'612.1
2017-Aug-14 01:00N 39°10' E 001°53'612.2
2017-Aug-14 00:30N 39°09' E 002°01'612.2
2017-Aug-14 00:00N 39°08' E 002°09'612.3
2017-Aug-13 23:30N 39°07' E 002°17'612.4
2017-Aug-13 23:00N 39°07' E 002°25'612.4
2017-Aug-13 22:31N 39°06' E 002°32'612.3
2017-Aug-13 22:00N 39°05' E 002°40'612.3
2017-Aug-13 21:30N 39°04' E 002°48'612.1
2017-Aug-13 21:00N 39°03' E 002°56'612.2
2017-Aug-13 20:30N 39°02' E 003°04'612.2
2017-Aug-13 20:00N 39°01' E 003°11'612.3
2017-Aug-13 19:30N 39°00' E 003°19'612.2
2017-Aug-13 19:00N 38°60' E 003°27'612.2
2017-Aug-13 18:30N 38°58' E 003°35'612.1
2017-Aug-13 18:00N 38°57' E 003°42'612.0
2017-Aug-13 17:28N 38°56' E 003°50'43111.6
2017-Aug-12 04:23N 37°19' E 012°44'911.7
2017-Aug-12 03:35N 37°14' E 012°54'2510.7
2017-Aug-12 01:17N 37°02' E 013°21'410.9
2017-Aug-12 00:54N 37°00' E 013°26'411.2
2017-Aug-12 00:30N 36°59' E 013°31'611.1
2017-Aug-12 00:00N 36°57' E 013°38'611.0
2017-Aug-11 23:30N 36°55' E 013°44'510.9
2017-Aug-11 23:00N 36°53' E 013°50'511.0
2017-Aug-11 22:30N 36°51' E 013°57'510.9
2017-Aug-11 22:00N 36°48' E 014°03'510.8
2017-Aug-11 21:30N 36°47' E 014°09'510.7
2017-Aug-11 21:00N 36°45' E 014°16'510.7
2017-Aug-11 20:30N 36°42' E 014°21'510.9
2017-Aug-11 20:00N 36°40' E 014°28'510.8
2017-Aug-11 19:30N 36°38' E 014°34'510.9
2017-Aug-11 19:00N 36°37' E 014°41'510.8
2017-Aug-11 18:30N 36°36' E 014°47'611.0
2017-Aug-11 18:00N 36°35' E 014°54'612.0
2017-Aug-11 17:30N 36°35' E 015°02'612.2
2017-Aug-11 17:00N 36°34' E 015°09'1012.7
2017-Aug-11 16:15N 36°34' E 015°21'312.4
2017-Aug-11 15:59N 36°34' E 015°25'612.6
2017-Aug-11 15:30N 36°33' E 015°33'612.9
2017-Aug-11 15:00N 36°33' E 015°40'712.9
2017-Aug-11 14:30N 36°32' E 015°49'1312.9
2017-Aug-11 13:30N 36°32' E 016°05'912.8
2017-Aug-11 12:50N 36°31' E 016°15'612.7
2017-Aug-11 12:20N 36°31' E 016°23'812.7
2017-Aug-11 11:44N 36°31' E 016°33'2612.5
2017-Aug-11 09:38N 36°30' E 017°05'212.4
2017-Aug-11 09:30N 36°30' E 017°07'712.6
2017-Aug-11 08:56N 36°30' E 017°16'512.5
2017-Aug-11 08:30N 36°30' E 017°23'612.5
2017-Aug-11 08:00N 36°29' E 017°31'612.6
2017-Aug-11 07:30N 36°29' E 017°38'612.6
2017-Aug-11 07:00N 36°29' E 017°46'612.6
2017-Aug-11 06:30N 36°29' E 017°54'612.7
2017-Aug-11 06:00N 36°29' E 018°02'612.8
2017-Aug-11 05:30N 36°29' E 018°10'712.3
2017-Aug-11 04:57N 36°28' E 018°18'612.6
2017-Aug-11 04:30N 36°27' E 018°25'612.7
2017-Aug-11 04:00N 36°27' E 018°33'713.1
2017-Aug-11 03:30N 36°27' E 018°41'713.4
2017-Aug-11 03:00N 36°27' E 018°49'3213.3
2017-Aug-11 00:38N 36°25' E 019°29'213.1
2017-Aug-11 00:29N 36°25' E 019°31'612.9
2017-Aug-11 00:00N 36°24' E 019°39'613.0
2017-Aug-10 23:30N 36°23' E 019°47'713.0
2017-Aug-10 23:00N 36°23' E 019°55'1113.1
2017-Aug-10 22:10N 36°23' E 020°09'213.1
2017-Aug-10 21:59N 36°23' E 020°11'17511.6
2017-Aug-10 06:50N 37°07' E 023°43'3413.5
2017-Aug-10 04:16N 37°35' E 024°08'  

Dump ship's entire track history